createdAt,value
2019-04-06T00:02:23.788Z,35.80
2019-04-06T00:04:52.852Z,36.65
2019-04-06T00:07:21.880Z,34.20
2019-04-06T00:09:50.946Z,35.20
2019-04-06T00:12:20.067Z,35.25
2019-04-06T00:14:49.185Z,36.13
2019-04-06T00:17:18.256Z,35.63
2019-04-06T00:19:47.343Z,35.15
2019-04-06T00:22:15.797Z,36.35
2019-04-06T00:24:44.969Z,36.75
2019-04-06T00:27:13.461Z,36.87
2019-04-06T00:29:42.520Z,35.55
2019-04-06T00:32:16.193Z,36.77
2019-04-06T00:34:45.279Z,35.40
2019-04-06T00:37:14.390Z,36.38
2019-04-06T00:39:43.447Z,35.25
2019-04-06T00:42:12.536Z,36.20
2019-04-06T00:44:41.073Z,34.48
2019-04-06T00:47:10.189Z,36.83
2019-04-06T00:49:39.261Z,36.35
2019-04-06T00:52:08.394Z,36.17
2019-04-06T00:54:37.445Z,38.67
2019-04-06T00:57:06.036Z,35.57
2019-04-06T00:59:35.075Z,36.35
2019-04-06T01:02:04.943Z,36.75
2019-04-06T01:04:34.012Z,36.23
2019-04-06T01:07:03.155Z,36.53
2019-04-06T01:09:32.311Z,37.80
2019-04-06T01:12:01.388Z,34.58
2019-04-06T01:14:29.935Z,35.60
2019-04-06T01:16:59.034Z,34.33
2019-04-06T01:19:28.092Z,35.60
2019-04-06T01:21:57.283Z,34.53
2019-04-06T01:24:25.745Z,35.27
2019-04-06T01:26:54.384Z,35.80
2019-04-06T01:29:23.449Z,34.27
2019-04-06T01:31:51.996Z,36.30
2019-04-06T01:34:20.462Z,35.77
2019-04-06T01:36:49.528Z,35.88
2019-04-06T01:39:18.092Z,34.10
2019-04-06T01:41:47.233Z,35.90
2019-04-06T01:44:15.689Z,34.77
2019-04-06T01:46:44.799Z,33.28
2019-04-06T01:49:13.277Z,36.23
2019-04-06T01:51:41.768Z,35.00
2019-04-06T01:54:10.244Z,35.13
2019-04-06T01:56:38.738Z,34.40
2019-04-06T01:59:07.777Z,35.30
2019-04-06T02:01:43.764Z,35.23
2019-04-06T02:04:12.240Z,33.80
2019-04-06T02:06:40.705Z,34.33
2019-04-06T02:09:09.177Z,35.13
2019-04-06T02:11:37.729Z,35.00
2019-04-06T02:14:06.194Z,35.40
2019-04-06T02:16:34.666Z,35.27
2019-04-06T02:19:03.265Z,34.77
2019-04-06T02:21:31.814Z,36.30
2019-04-06T02:24:00.869Z,35.73
2019-04-06T02:26:31.207Z,37.33
2019-04-06T02:29:00.570Z,35.58
2019-04-06T02:31:36.744Z,35.00
2019-04-06T02:34:21.867Z,35.67
2019-04-06T02:37:07.967Z,35.93
2019-04-06T02:39:56.246Z,35.77
2019-04-06T02:42:28.841Z,35.87
2019-04-06T02:44:57.330Z,36.77
2019-04-06T02:47:25.824Z,37.70
2019-04-06T02:49:54.326Z,37.13
2019-04-06T02:52:22.840Z,35.00
2019-04-06T02:54:51.331Z,35.47
2019-04-06T02:57:19.870Z,36.40
2019-04-06T02:59:48.362Z,34.67
2019-04-06T03:02:16.907Z,35.50
2019-04-06T03:04:45.382Z,35.90
2019-04-06T03:07:13.855Z,33.67
2019-04-06T03:09:42.408Z,35.93
2019-04-06T03:12:10.953Z,35.40
2019-04-06T03:14:39.505Z,35.17
2019-04-06T03:17:08.114Z,35.20
2019-04-06T03:19:37.072Z,35.03
2019-04-06T03:22:05.778Z,36.07
2019-04-06T03:24:34.260Z,34.57
2019-04-06T03:27:03.264Z,33.57
2019-04-06T03:29:31.872Z,36.07
2019-04-06T03:32:00.483Z,35.83
2019-04-06T03:34:29.120Z,34.80
2019-04-06T03:36:57.693Z,36.10
2019-04-06T03:39:26.181Z,34.53
2019-04-06T03:41:54.654Z,34.57
2019-04-06T03:44:23.265Z,35.77
2019-04-06T03:46:51.890Z,34.23
2019-04-06T03:49:20.376Z,33.53
2019-04-06T03:51:48.847Z,34.23
2019-04-06T03:54:17.575Z,35.30
2019-04-06T03:56:46.768Z,35.73
2019-04-06T03:59:15.241Z,35.67
2019-04-06T04:01:43.713Z,38.07
2019-04-06T04:04:12.187Z,32.03
2019-04-06T04:06:40.681Z,34.83
2019-04-06T04:09:09.158Z,31.80
2019-04-06T04:11:37.631Z,32.27
2019-04-06T04:14:06.203Z,31.87
2019-04-06T04:16:34.712Z,30.60
2019-04-06T04:19:03.511Z,31.00
2019-04-06T04:21:32.127Z,30.17
2019-04-06T04:24:00.839Z,29.87
2019-04-06T04:26:29.379Z,30.40
2019-04-06T04:28:57.915Z,31.45
2019-04-06T04:31:26.386Z,30.73
2019-04-06T04:33:55.444Z,30.02
2019-04-06T04:36:24.483Z,29.63
2019-04-06T04:38:52.974Z,30.00
2019-04-06T04:41:22.008Z,28.52
2019-04-06T04:43:50.507Z,29.07
2019-04-06T04:46:18.986Z,29.60
2019-04-06T04:48:47.466Z,30.17
2019-04-06T04:51:15.936Z,29.20
2019-04-06T04:53:44.428Z,29.35
2019-04-06T04:56:12.882Z,29.10
2019-04-06T04:58:42.167Z,28.42
2019-04-06T05:01:10.784Z,28.23
2019-04-06T05:03:39.267Z,27.75
2019-04-06T05:06:07.804Z,27.45
2019-04-06T05:08:36.838Z,28.25
2019-04-06T05:11:05.523Z,27.80
2019-04-06T05:13:34.580Z,29.07
2019-04-06T05:16:09.259Z,29.70
2019-04-06T05:18:39.234Z,28.92
2019-04-06T05:21:08.910Z,29.27
2019-04-06T05:23:37.956Z,28.80
2019-04-06T05:26:07.485Z,30.27
2019-04-06T05:28:36.604Z,31.25
2019-04-06T05:31:06.122Z,33.25
2019-04-06T05:33:35.162Z,32.53
2019-04-06T05:36:04.452Z,30.85
2019-04-06T05:38:33.578Z,32.28
2019-04-06T05:41:02.670Z,32.63
2019-04-06T05:43:31.868Z,32.40
2019-04-06T05:46:01.444Z,31.42
2019-04-06T05:48:30.644Z,30.68
2019-04-06T05:50:59.703Z,31.25
2019-04-06T05:53:28.759Z,31.07
2019-04-06T05:55:57.827Z,31.12
2019-04-06T05:58:26.877Z,31.62
2019-04-06T06:00:55.955Z,32.53
2019-04-06T06:03:25.019Z,33.15
2019-04-06T06:05:54.161Z,32.10
2019-04-06T06:08:23.238Z,33.05
2019-04-06T06:10:52.347Z,32.58
2019-04-06T06:13:21.541Z,33.02
2019-04-06T06:15:50.695Z,32.53
2019-04-06T06:18:27.390Z,31.48
2019-04-06T06:20:52.363Z,33.18
2019-04-06T06:23:21.460Z,32.05
2019-04-06T06:25:50.518Z,31.25
2019-04-06T06:28:19.595Z,30.40
2019-04-06T06:30:48.914Z,29.92
2019-04-06T06:33:18.016Z,30.27
2019-04-06T06:35:47.068Z,30.45
2019-04-06T06:38:16.209Z,30.25
2019-04-06T06:40:45.270Z,30.12
2019-04-06T06:43:14.303Z,28.90
2019-04-06T06:45:43.621Z,29.85
2019-04-06T06:48:12.704Z,30.88
2019-04-06T06:50:42.011Z,30.57
2019-04-06T06:53:11.280Z,32.42
2019-04-06T06:55:40.447Z,31.10
2019-04-06T06:58:09.510Z,31.75
2019-04-06T07:00:38.563Z,30.35
2019-04-06T07:03:07.675Z,31.15
2019-04-06T07:05:36.818Z,32.08
2019-04-06T07:08:06.057Z,32.23
2019-04-06T07:10:35.210Z,31.87
2019-04-06T07:13:04.282Z,31.35
2019-04-06T07:15:33.404Z,30.50
2019-04-06T07:18:02.458Z,31.52
2019-04-06T07:20:31.573Z,29.65
2019-04-06T07:23:00.638Z,30.32
2019-04-06T07:25:29.776Z,29.72
2019-04-06T07:27:58.952Z,28.85
2019-04-06T07:30:28.198Z,30.08
2019-04-06T07:32:57.245Z,30.12
2019-04-06T07:35:26.421Z,30.90
2019-04-06T07:37:55.511Z,29.67
2019-04-06T07:40:24.568Z,29.48
2019-04-06T07:42:53.683Z,29.90
2019-04-06T07:45:22.768Z,30.25
2019-04-06T07:47:51.797Z,29.98
2019-04-06T07:50:21.025Z,29.60
2019-04-06T07:52:50.144Z,30.25
2019-04-06T07:55:19.209Z,30.77
2019-04-06T07:57:48.252Z,31.10
2019-04-06T08:00:17.645Z,31.00
2019-04-06T08:02:46.681Z,30.12
2019-04-06T08:05:15.754Z,31.15
2019-04-06T08:07:44.853Z,30.82
2019-04-06T08:10:14.078Z,30.68
2019-04-06T08:12:43.175Z,30.57
2019-04-06T08:15:12.305Z,31.23
2019-04-06T08:17:41.339Z,30.17
2019-04-06T08:20:10.605Z,30.20
2019-04-06T08:22:39.791Z,30.17
2019-04-06T08:25:09.087Z,30.65
2019-04-06T08:27:38.395Z,31.77
2019-04-06T08:30:12.284Z,31.40
2019-04-06T08:32:41.499Z,30.52
2019-04-06T08:35:12.272Z,30.85
2019-04-06T08:37:41.346Z,32.00
2019-04-06T08:40:11.111Z,31.10
2019-04-06T08:42:40.267Z,34.10
2019-04-06T08:45:10.210Z,31.90
2019-04-06T08:47:39.407Z,31.77
2019-04-06T08:50:08.784Z,32.63
2019-04-06T08:52:37.870Z,33.53
2019-04-06T08:55:07.268Z,33.95
2019-04-06T08:57:36.308Z,32.03
2019-04-06T09:00:08.283Z,31.87
2019-04-06T09:02:37.344Z,33.08
2019-04-06T09:05:08.232Z,32.20
2019-04-06T09:07:37.279Z,32.40
2019-04-06T09:10:06.901Z,32.83
2019-04-06T09:12:35.936Z,32.58
2019-04-06T09:15:08.014Z,31.77
2019-04-06T09:17:37.094Z,32.15
2019-04-06T09:20:08.297Z,32.33
2019-04-06T09:22:37.383Z,31.10
2019-04-06T09:25:07.034Z,30.90
2019-04-06T09:27:36.060Z,31.15
2019-04-06T09:30:07.100Z,32.00
2019-04-06T09:32:36.269Z,30.62
2019-04-06T09:35:06.167Z,32.00
2019-04-06T09:37:35.550Z,31.73
2019-04-06T09:40:06.566Z,31.12
2019-04-06T09:42:35.610Z,30.23
2019-04-06T09:45:21.390Z,30.80
2019-04-06T09:47:58.165Z,30.25
2019-04-06T09:50:34.362Z,30.68
2019-04-06T09:53:21.193Z,31.77
2019-04-06T09:55:51.980Z,30.05
2019-04-06T09:58:25.752Z,31.73
2019-04-06T10:00:59.320Z,29.23
2019-04-06T10:03:32.824Z,31.02
2019-04-06T10:06:03.555Z,30.97
2019-04-06T10:08:37.393Z,30.10
2019-04-06T10:11:25.995Z,30.90
2019-04-06T10:13:59.791Z,30.30
2019-04-06T10:16:30.477Z,30.95
2019-04-06T10:19:01.178Z,30.97
2019-04-06T10:21:48.081Z,31.85
2019-04-06T10:24:18.781Z,30.35
2019-04-06T10:27:01.813Z,30.85
2019-04-06T10:29:32.965Z,29.70
2019-04-06T10:32:03.743Z,29.67
2019-04-06T10:34:40.576Z,29.92
2019-04-06T10:37:13.855Z,28.42
2019-04-06T10:39:47.352Z,27.07
2019-04-06T10:42:30.062Z,27.02
2019-04-06T10:45:03.762Z,26.17
2019-04-06T10:47:43.821Z,26.07
2019-04-06T10:50:31.172Z,26.60
2019-04-06T10:53:13.934Z,27.15
2019-04-06T10:55:44.666Z,25.05
2019-04-06T10:58:18.625Z,26.23
2019-04-06T11:01:04.718Z,25.27
2019-04-06T11:03:50.587Z,26.62
2019-04-06T11:06:27.293Z,27.05
2019-04-06T11:09:04.279Z,24.85
2019-04-06T11:11:35.610Z,21.50
2019-04-06T11:14:06.636Z,22.75
2019-04-06T11:16:43.396Z,22.90
2019-04-06T11:19:14.082Z,24.25
2019-04-06T11:22:03.036Z,22.85
2019-04-06T11:24:42.459Z,21.93
2019-04-06T11:27:19.491Z,22.87
2019-04-06T11:30:11.269Z,22.80
2019-04-06T11:32:37.928Z,23.12
2019-04-06T11:35:18.280Z,22.02
2019-04-06T11:37:58.294Z,22.60
2019-04-06T11:40:28.974Z,23.50
2019-04-06T11:43:05.710Z,22.85
2019-04-06T11:45:51.542Z,21.25
2019-04-06T11:48:31.556Z,21.00
2019-04-06T11:51:18.856Z,20.10
2019-04-06T11:53:58.392Z,20.45
2019-04-06T11:56:29.305Z,23.32
2019-04-06T11:59:16.831Z,26.93
2019-04-06T12:01:53.558Z,26.48
2019-04-06T12:04:30.524Z,25.27
2019-04-06T12:07:10.461Z,24.30
2019-04-06T12:09:43.899Z,24.82
2019-04-06T12:12:29.989Z,26.15
2019-04-06T12:15:09.489Z,22.87
2019-04-06T12:17:58.327Z,23.55
2019-04-06T12:20:37.615Z,25.45
2019-04-06T12:23:24.548Z,22.50
2019-04-06T12:25:55.258Z,23.65
2019-04-06T12:28:28.782Z,24.95
2019-04-06T12:31:05.852Z,24.32
2019-04-06T12:33:36.543Z,26.10
2019-04-06T12:36:13.594Z,24.77
2019-04-06T12:38:44.620Z,24.47
2019-04-06T12:41:30.661Z,25.08
2019-04-06T12:44:13.527Z,24.15
2019-04-06T12:47:00.567Z,23.95
2019-04-06T12:49:46.363Z,23.77
2019-04-06T12:52:17.077Z,23.98
2019-04-06T12:55:02.883Z,23.87
2019-04-06T12:57:36.291Z,24.45
2019-04-06T13:00:14.686Z,24.27
2019-04-06T13:03:01.613Z,22.93
2019-04-06T13:05:50.415Z,23.45
2019-04-06T13:08:27.333Z,24.07
2019-04-06T13:11:19.067Z,23.65
2019-04-06T13:13:48.708Z,23.98
2019-04-06T13:16:28.544Z,23.75
2019-04-06T13:19:04.932Z,22.45
2019-04-06T13:21:47.817Z,20.80
2019-04-06T13:24:24.630Z,20.85
2019-04-06T13:26:57.933Z,20.72
2019-04-06T13:29:34.540Z,20.80
2019-04-06T13:32:20.411Z,20.60
2019-04-06T13:35:03.470Z,21.50
2019-04-06T13:37:36.806Z,19.73
2019-04-06T13:40:25.168Z,19.57
2019-04-06T13:43:12.013Z,18.20
2019-04-06T13:45:52.006Z,18.02
2019-04-06T13:48:39.498Z,17.95
2019-04-06T13:51:10.584Z,17.67
2019-04-06T13:53:53.637Z,17.37
2019-04-06T13:56:36.473Z,16.95
2019-04-06T13:59:23.634Z,17.25
2019-04-06T14:02:03.765Z,15.63
2019-04-06T14:04:43.425Z,14.93
2019-04-06T14:07:17.015Z,15.00
2019-04-06T14:09:47.775Z,14.65
2019-04-06T14:12:18.511Z,13.62
2019-04-06T14:15:04.444Z,13.10
2019-04-06T14:17:41.193Z,13.13
2019-04-06T14:20:28.546Z,12.13
2019-04-06T14:23:05.156Z,13.58
2019-04-06T14:25:41.541Z,12.80
2019-04-06T14:28:12.247Z,13.20
2019-04-06T14:30:54.794Z,12.27
2019-04-06T14:33:41.878Z,13.00
2019-04-06T14:36:24.589Z,12.17
2019-04-06T14:38:55.204Z,11.83
2019-04-06T14:41:41.152Z,12.50
2019-04-06T14:44:27.682Z,12.60
2019-04-06T14:46:58.369Z,12.63
2019-04-06T14:49:34.524Z,12.03
2019-04-06T14:52:07.817Z,12.50
2019-04-06T14:54:38.212Z,12.10
2019-04-06T14:57:08.769Z,11.93
2019-04-06T14:59:39.265Z,11.83
2019-04-06T15:02:09.670Z,13.23
2019-04-06T15:04:52.588Z,12.73
2019-04-06T15:07:23.016Z,12.77
2019-04-06T15:09:56.448Z,13.73
2019-04-06T15:12:29.462Z,13.57
2019-04-06T15:15:05.470Z,12.80
2019-04-06T15:17:35.894Z,13.00
2019-04-06T15:20:23.016Z,13.30
2019-04-06T15:22:59.452Z,12.40
2019-04-06T15:25:38.654Z,11.57
2019-04-06T15:28:27.362Z,11.97
2019-04-06T15:31:00.428Z,11.93
2019-04-06T15:33:49.134Z,12.60
2019-04-06T15:36:20.070Z,11.70
2019-04-06T15:38:59.516Z,11.70
2019-04-06T15:41:32.508Z,11.37
2019-04-06T15:44:02.918Z,10.87
2019-04-06T15:46:45.313Z,11.77
2019-04-06T15:49:24.507Z,11.23
2019-04-06T15:51:54.964Z,11.50
2019-04-06T15:54:25.374Z,11.80
2019-04-06T15:56:56.083Z,11.43
2019-04-06T15:59:29.246Z,11.67
2019-04-06T16:02:05.737Z,11.60
2019-04-06T16:04:54.283Z,11.50
2019-04-06T16:07:31.093Z,11.97
2019-04-06T16:09:56.822Z,12.97
2019-04-06T16:12:43.529Z,13.27
2019-04-06T16:15:16.915Z,12.73
2019-04-06T16:17:53.271Z,13.60
2019-04-06T16:20:26.437Z,15.00
2019-04-06T16:23:06.258Z,14.83
2019-04-06T16:25:42.982Z,15.07
2019-04-06T16:28:13.811Z,15.30
2019-04-06T16:30:44.780Z,15.65
2019-04-06T16:33:15.379Z,15.90
2019-04-06T16:35:55.117Z,16.40
2019-04-06T16:38:38.014Z,15.18
2019-04-06T16:41:08.793Z,15.68
2019-04-06T16:43:39.892Z,15.53
2019-04-06T16:46:10.642Z,15.53
2019-04-06T16:48:58.280Z,16.02
2019-04-06T16:51:40.934Z,15.72
2019-04-06T16:54:14.633Z,15.13
2019-04-06T16:56:45.348Z,14.90
2019-04-06T16:59:16.495Z,15.60
2019-04-06T17:01:49.804Z,14.38
2019-04-06T17:04:20.504Z,14.80
2019-04-06T17:07:07.594Z,15.20
2019-04-06T17:09:48.003Z,15.20
2019-04-06T17:12:34.073Z,15.00
2019-04-06T17:15:20.515Z,14.75
2019-04-06T17:17:51.370Z,14.80
2019-04-06T17:20:28.548Z,14.28
2019-04-06T17:22:59.399Z,14.63
2019-04-06T17:25:30.125Z,14.43
2019-04-06T17:28:17.022Z,14.68
2019-04-06T17:30:50.852Z,15.63
2019-04-06T17:33:21.655Z,15.10
2019-04-06T17:36:07.707Z,15.83
2019-04-06T17:38:54.746Z,16.00
2019-04-06T17:41:42.200Z,16.00
2019-04-06T17:44:22.303Z,15.45
2019-04-06T17:46:56.085Z,15.45
2019-04-06T17:49:42.963Z,17.00
2019-04-06T17:52:25.641Z,17.32
2019-04-06T17:55:12.632Z,16.95
2019-04-06T17:57:49.155Z,17.40
2019-04-06T18:00:29.009Z,16.65
2019-04-06T18:03:18.216Z,15.60
2019-04-06T18:05:54.786Z,17.67
2019-04-06T18:08:42.100Z,17.65
2019-04-06T18:11:12.825Z,17.75
2019-04-06T18:13:51.110Z,15.23
2019-04-06T18:16:23.140Z,16.62
2019-04-06T18:18:55.873Z,15.63
2019-04-06T18:21:24.937Z,16.82
2019-04-06T18:23:54.303Z,15.88
2019-04-06T18:26:23.475Z,16.27
2019-04-06T18:28:52.740Z,17.70
2019-04-06T18:31:23.768Z,16.00
2019-04-06T18:33:52.841Z,15.88
2019-04-06T18:36:23.710Z,16.35
2019-04-06T18:38:54.934Z,16.20
2019-04-06T18:41:24.522Z,15.83
2019-04-06T18:43:53.864Z,16.85
2019-04-06T18:46:23.052Z,16.27
2019-04-06T18:48:52.176Z,17.27
2019-04-06T18:51:21.256Z,16.95
2019-04-06T18:53:50.366Z,17.40
2019-04-06T18:56:19.967Z,16.85
2019-04-06T18:58:49.316Z,18.23
2019-04-06T19:01:18.405Z,18.20
2019-04-06T19:03:47.539Z,20.23
2019-04-06T19:06:19.007Z,19.98
2019-04-06T19:08:48.141Z,19.42
2019-04-06T19:11:17.380Z,20.12
2019-04-06T19:13:46.525Z,19.65
2019-04-06T19:16:17.330Z,19.92
2019-04-06T19:18:46.674Z,19.15
2019-04-06T19:21:16.383Z,18.50
2019-04-06T19:23:45.595Z,18.32
2019-04-06T19:26:15.058Z,18.73
2019-04-06T19:28:44.598Z,18.02
2019-04-06T19:31:13.939Z,18.07
2019-04-06T19:33:43.156Z,18.60
2019-04-06T19:36:12.441Z,17.70
2019-04-06T19:38:41.583Z,18.05
2019-04-06T19:41:10.653Z,17.48
2019-04-06T19:43:40.008Z,18.35
2019-04-06T19:46:09.157Z,17.77
2019-04-06T19:48:40.503Z,18.77
2019-04-06T19:51:09.071Z,18.25
2019-04-06T19:53:38.137Z,18.32
2019-04-06T19:56:07.706Z,18.25
2019-04-06T19:58:37.089Z,18.87
2019-04-06T20:01:06.823Z,18.87
2019-04-06T20:03:38.548Z,18.92
2019-04-06T20:06:06.844Z,18.52
2019-04-06T20:08:36.259Z,18.80
2019-04-06T20:11:05.520Z,18.17
2019-04-06T20:13:34.615Z,18.67
2019-04-06T20:16:04.633Z,19.07
2019-04-06T20:18:33.821Z,19.67
2019-04-06T20:21:03.426Z,20.10
2019-04-06T20:23:32.631Z,20.12
2019-04-06T20:26:01.689Z,21.07
2019-04-06T20:28:30.995Z,19.45
2019-04-06T20:31:00.129Z,19.75
2019-04-06T20:33:29.537Z,19.80
2019-04-06T20:35:58.769Z,18.95
2019-04-06T20:38:27.897Z,18.98
2019-04-06T20:40:57.214Z,19.42
2019-04-06T20:43:27.553Z,19.55
2019-04-06T20:45:56.749Z,19.95
2019-04-06T20:48:25.830Z,20.23
2019-04-06T20:50:55.119Z,20.15
2019-04-06T20:53:24.258Z,20.55
2019-04-06T20:55:53.451Z,19.65
2019-04-06T20:58:22.518Z,22.45
2019-04-06T21:00:51.596Z,21.97
2019-04-06T21:03:20.671Z,21.90
2019-04-06T21:05:49.750Z,22.13
2019-04-06T21:08:18.855Z,21.57
2019-04-06T21:10:48.518Z,22.07
2019-04-06T21:13:17.694Z,21.33
2019-04-06T21:15:46.834Z,22.07
2019-04-06T21:18:15.886Z,22.75
2019-04-06T21:20:45.294Z,20.97
2019-04-06T21:23:15.133Z,21.17
2019-04-06T21:25:45.225Z,20.92
2019-04-06T21:28:14.485Z,20.15
2019-04-06T21:30:43.586Z,20.12
2019-04-06T21:33:13.123Z,19.92
2019-04-06T21:35:42.467Z,20.57
2019-04-06T21:38:12.177Z,21.75
2019-04-06T21:40:41.348Z,20.88
2019-04-06T21:43:10.456Z,21.45
2019-04-06T21:45:39.589Z,21.02
2019-04-06T21:48:08.646Z,21.12
2019-04-06T21:50:37.714Z,21.00
2019-04-06T21:53:07.114Z,22.58
2019-04-06T21:55:36.849Z,21.40
2019-04-06T21:58:06.261Z,21.17
2019-04-06T22:00:55.728Z,22.10
2019-04-06T22:03:25.025Z,22.67
2019-04-06T22:05:54.248Z,21.77
2019-04-06T22:08:23.382Z,22.20
2019-04-06T22:10:52.864Z,23.30
2019-04-06T22:13:22.409Z,22.77
2019-04-06T22:15:51.788Z,23.18
2019-04-06T22:18:21.876Z,22.98
2019-04-06T22:20:51.294Z,23.62
2019-04-06T22:23:20.871Z,23.42
2019-04-06T22:25:50.521Z,25.00
2019-04-06T22:28:19.668Z,23.20
2019-04-06T22:30:48.738Z,23.20
2019-04-06T22:33:17.791Z,21.37
2019-04-06T22:35:47.530Z,21.35
2019-04-06T22:38:17.108Z,23.25
2019-04-06T22:40:46.442Z,23.35
2019-04-06T22:43:15.719Z,23.35
2019-04-06T22:45:45.389Z,22.52
2019-04-06T22:48:15.365Z,24.40
2019-04-06T22:50:44.406Z,23.87
2019-04-06T22:53:13.478Z,25.40
2019-04-06T22:55:42.976Z,24.40
2019-04-06T22:58:12.172Z,24.63
2019-04-06T23:00:48.950Z,25.45
2019-04-06T23:03:36.669Z,25.70
2019-04-06T23:06:14.244Z,25.72
2019-04-06T23:08:43.825Z,26.15
2019-04-06T23:11:12.982Z,25.88
2019-04-06T23:13:42.115Z,25.25
2019-04-06T23:16:11.409Z,25.60
2019-04-06T23:18:41.238Z,26.65
2019-04-06T23:21:11.914Z,25.70
2019-04-06T23:23:40.977Z,25.75
2019-04-06T23:26:10.118Z,25.50
2019-04-06T23:28:39.266Z,26.57
2019-04-06T23:31:08.300Z,26.02
2019-04-06T23:33:38.011Z,26.07
2019-04-06T23:36:07.778Z,26.73
2019-04-06T23:38:37.347Z,28.12
2019-04-06T23:41:07.065Z,27.20
2019-04-06T23:43:36.141Z,26.82
2019-04-06T23:46:05.192Z,26.93
2019-04-06T23:48:34.825Z,26.57
2019-04-06T23:51:04.050Z,26.57
2019-04-06T23:53:33.186Z,26.70
2019-04-06T23:56:02.686Z,27.25
2019-04-06T23:58:32.467Z,26.35
